createdAt,value
2018-07-31T00:00:40.260Z,5.97
2018-07-31T00:03:09.499Z,5.90
2018-07-31T00:05:38.703Z,6.97
2018-07-31T00:08:08.253Z,6.40
2018-07-31T00:10:37.650Z,6.10
2018-07-31T00:13:06.813Z,5.97
2018-07-31T00:15:36.072Z,5.70
2018-07-31T00:18:08.369Z,5.90
2018-07-31T00:20:37.649Z,5.37
2018-07-31T00:23:07.599Z,5.23
2018-07-31T00:25:36.925Z,6.23
2018-07-31T00:28:06.168Z,5.80
2018-07-31T00:30:35.472Z,5.67
2018-07-31T00:33:04.693Z,6.00
2018-07-31T00:35:33.920Z,6.00
2018-07-31T00:38:03.156Z,6.00
2018-07-31T00:40:32.870Z,5.30
2018-07-31T00:43:02.103Z,5.53
2018-07-31T00:45:31.324Z,6.17
2018-07-31T00:48:00.563Z,6.27
2018-07-31T00:50:29.902Z,5.73
2018-07-31T00:52:59.119Z,5.87
2018-07-31T00:55:28.832Z,6.27
2018-07-31T00:57:58.110Z,5.87
2018-07-31T01:00:27.403Z,5.73
2018-07-31T01:02:56.628Z,6.13
2018-07-31T01:05:25.841Z,6.10
2018-07-31T01:07:55.077Z,6.27
2018-07-31T01:10:24.380Z,5.90
2018-07-31T01:12:54.384Z,6.10
2018-07-31T01:15:23.616Z,6.40
2018-07-31T01:17:52.844Z,6.20
2018-07-31T01:20:22.596Z,5.90
2018-07-31T01:22:51.828Z,6.43
2018-07-31T01:25:21.026Z,6.50
2018-07-31T01:27:50.399Z,6.13
2018-07-31T01:30:19.720Z,6.03
2018-07-31T01:32:48.998Z,6.60
2018-07-31T01:35:18.245Z,6.03
2018-07-31T01:37:47.455Z,5.90
2018-07-31T01:40:16.803Z,6.00
2018-07-31T01:42:46.053Z,5.97
2018-07-31T01:45:15.252Z,5.67
2018-07-31T01:47:45.716Z,5.40
2018-07-31T01:50:15.017Z,5.80
2018-07-31T01:52:45.149Z,6.13
2018-07-31T01:55:14.364Z,6.33
2018-07-31T01:57:43.687Z,6.10
2018-07-31T02:00:13.006Z,6.13
2018-07-31T02:02:42.342Z,6.30
2018-07-31T02:05:11.564Z,6.07
2018-07-31T02:07:40.792Z,6.03
2018-07-31T02:10:10.037Z,6.20
2018-07-31T02:12:39.242Z,6.13
2018-07-31T02:15:09.355Z,6.50
2018-07-31T02:17:38.589Z,5.97
2018-07-31T02:20:07.956Z,6.07
2018-07-31T02:22:37.184Z,5.77
2018-07-31T02:25:06.823Z,6.00
2018-07-31T02:27:36.034Z,6.10
2018-07-31T02:30:09.456Z,5.97
2018-07-31T02:32:39.399Z,5.90
2018-07-31T02:35:08.604Z,6.33
2018-07-31T02:37:37.811Z,6.00
2018-07-31T02:40:07.105Z,5.90
2018-07-31T02:42:36.390Z,5.90
2018-07-31T02:45:07.795Z,5.90
2018-07-31T02:47:37.530Z,6.10
2018-07-31T02:50:07.477Z,5.70
2018-07-31T02:52:36.708Z,6.20
2018-07-31T02:55:06.427Z,6.03
2018-07-31T02:57:35.708Z,5.83
2018-07-31T03:00:05.949Z,6.00
2018-07-31T03:02:35.208Z,5.90
2018-07-31T03:05:05.089Z,5.97
2018-07-31T03:07:34.313Z,5.90
2018-07-31T03:10:03.590Z,5.90
2018-07-31T03:12:32.788Z,6.20
2018-07-31T03:15:02.017Z,6.23
2018-07-31T03:17:31.216Z,6.53
2018-07-31T03:20:01.200Z,6.47
2018-07-31T03:22:30.462Z,6.90
2018-07-31T03:24:59.732Z,6.00
2018-07-31T03:27:28.955Z,6.00
2018-07-31T03:29:58.244Z,5.90
2018-07-31T03:32:27.528Z,6.23
2018-07-31T03:34:57.620Z,6.23
2018-07-31T03:37:26.853Z,6.00
2018-07-31T03:39:56.143Z,6.03
2018-07-31T03:42:25.420Z,6.67
2018-07-31T03:44:54.634Z,6.73
2018-07-31T03:47:23.871Z,6.40
2018-07-31T03:49:53.133Z,6.10
2018-07-31T03:52:23.129Z,5.87
2018-07-31T03:54:52.358Z,6.50
2018-07-31T03:57:21.577Z,5.90
2018-07-31T03:59:50.827Z,6.17
2018-07-31T04:02:20.077Z,6.00
2018-07-31T04:04:49.325Z,6.20
2018-07-31T04:07:19.059Z,5.90
2018-07-31T04:09:48.364Z,6.70
2018-07-31T04:12:17.589Z,5.80
2018-07-31T04:14:46.793Z,6.17
2018-07-31T04:17:16.094Z,6.47
2018-07-31T04:19:45.357Z,6.67
2018-07-31T04:22:14.560Z,6.17
2018-07-31T04:24:44.543Z,6.27
2018-07-31T04:27:13.748Z,6.40
2018-07-31T04:29:43.076Z,6.60
2018-07-31T04:32:12.272Z,7.13
2018-07-31T04:34:41.985Z,6.50
2018-07-31T04:37:11.217Z,6.43
2018-07-31T04:39:40.551Z,6.67
2018-07-31T04:42:09.780Z,6.93
2018-07-31T04:44:39.020Z,6.70
2018-07-31T04:47:08.312Z,6.30
2018-07-31T04:49:37.615Z,6.47
2018-07-31T04:52:07.146Z,6.50
2018-07-31T04:54:36.382Z,6.50
2018-07-31T04:57:05.988Z,6.20
2018-07-31T04:59:35.296Z,6.00
2018-07-31T05:02:04.585Z,6.43
2018-07-31T05:04:34.968Z,6.50
2018-07-31T05:07:04.320Z,5.70
2018-07-31T05:09:33.741Z,6.30
2018-07-31T05:12:03.242Z,6.30
2018-07-31T05:14:32.534Z,6.67
2018-07-31T05:17:01.857Z,6.40
2018-07-31T05:19:31.148Z,6.43
2018-07-31T05:22:00.441Z,6.93
2018-07-31T05:24:29.727Z,6.43
2018-07-31T05:26:59.022Z,6.93
2018-07-31T05:29:28.506Z,6.13
2018-07-31T05:31:57.934Z,6.80
2018-07-31T05:34:28.097Z,6.47
2018-07-31T05:36:58.130Z,6.97
2018-07-31T05:39:28.376Z,7.13
2018-07-31T05:41:58.236Z,7.57
2018-07-31T05:44:28.264Z,6.93
2018-07-31T05:47:06.197Z,7.30
2018-07-31T05:49:36.409Z,7.33
2018-07-31T05:52:06.716Z,7.60
2018-07-31T05:54:35.932Z,7.43
2018-07-31T05:57:06.209Z,7.37
2018-07-31T05:59:36.252Z,7.17
2018-07-31T06:02:05.648Z,7.47
2018-07-31T06:04:34.973Z,6.83
2018-07-31T06:07:04.303Z,7.00
2018-07-31T06:09:35.429Z,6.67
2018-07-31T06:12:04.709Z,7.47
2018-07-31T06:14:35.050Z,7.43
2018-07-31T06:17:03.826Z,7.80
2018-07-31T06:19:33.325Z,7.67
2018-07-31T06:22:02.597Z,7.60
2018-07-31T06:24:31.880Z,6.80
2018-07-31T06:27:01.213Z,6.43
2018-07-31T06:29:30.544Z,6.93
2018-07-31T06:31:59.864Z,7.33
2018-07-31T06:34:29.205Z,7.30
2018-07-31T06:36:58.524Z,7.10
2018-07-31T06:39:27.992Z,6.73
2018-07-31T06:41:57.333Z,7.00
2018-07-31T06:44:26.656Z,6.80
2018-07-31T06:46:55.969Z,6.97
2018-07-31T06:49:25.377Z,7.20
2018-07-31T06:51:54.711Z,6.60
2018-07-31T06:54:23.998Z,6.87
2018-07-31T06:56:53.336Z,7.03
2018-07-31T06:59:22.887Z,6.30
2018-07-31T07:01:52.217Z,6.60
2018-07-31T07:04:21.670Z,6.83
2018-07-31T07:06:50.972Z,6.27
2018-07-31T07:09:20.454Z,6.60
2018-07-31T07:11:49.825Z,6.30
2018-07-31T07:14:19.218Z,6.50
2018-07-31T07:16:48.794Z,6.47
2018-07-31T07:19:18.268Z,6.10
2018-07-31T07:21:47.569Z,6.50
2018-07-31T07:24:16.912Z,6.73
2018-07-31T07:26:46.287Z,6.27
2018-07-31T07:29:15.690Z,5.50
2018-07-31T07:31:45.045Z,6.30
2018-07-31T07:34:14.346Z,6.10
2018-07-31T07:36:44.250Z,5.97
2018-07-31T07:39:13.907Z,6.10
2018-07-31T07:41:43.188Z,6.30
2018-07-31T07:44:12.555Z,6.80
2018-07-31T07:46:41.830Z,5.67
2018-07-31T07:49:11.228Z,5.60
2018-07-31T07:51:40.084Z,6.10
2018-07-31T07:54:09.480Z,6.10
2018-07-31T07:56:38.773Z,5.87
2018-07-31T07:59:08.109Z,6.00
2018-07-31T08:01:37.413Z,6.30
2018-07-31T08:04:06.775Z,5.80
2018-07-31T08:06:36.097Z,6.07
2018-07-31T08:09:09.052Z,5.73
2018-07-31T08:11:38.329Z,5.37
2018-07-31T08:14:07.732Z,5.93
2018-07-31T08:16:37.032Z,5.43
2018-07-31T08:19:06.514Z,5.17
2018-07-31T08:21:35.822Z,5.93
2018-07-31T08:24:05.136Z,5.57
2018-07-31T08:26:34.442Z,5.30
2018-07-31T08:29:03.774Z,5.47
2018-07-31T08:31:33.077Z,5.53
2018-07-31T08:34:02.502Z,5.17
2018-07-31T08:36:31.863Z,5.83
2018-07-31T08:39:01.243Z,5.60
2018-07-31T08:41:31.031Z,5.47
2018-07-31T08:44:00.357Z,5.63
2018-07-31T08:46:29.612Z,5.10
2018-07-31T08:48:58.944Z,5.43
2018-07-31T08:51:28.209Z,5.53
2018-07-31T08:53:58.504Z,5.33
2018-07-31T08:56:27.827Z,5.57
2018-07-31T08:58:57.204Z,5.33
2018-07-31T09:01:26.549Z,5.73
2018-07-31T09:03:55.893Z,5.70
2018-07-31T09:06:25.236Z,5.30
2018-07-31T09:08:54.627Z,5.70
2018-07-31T09:11:23.918Z,5.33
2018-07-31T09:13:53.564Z,5.57
2018-07-31T09:16:22.865Z,5.40
2018-07-31T09:18:52.635Z,5.30
2018-07-31T09:21:21.985Z,5.20
2018-07-31T09:23:51.273Z,5.30
2018-07-31T09:26:20.593Z,5.23
2018-07-31T09:28:50.175Z,5.00
2018-07-31T09:31:19.440Z,5.33
2018-07-31T09:33:48.807Z,5.37
2018-07-31T09:36:18.083Z,5.20
2018-07-31T09:38:47.447Z,5.50
2018-07-31T09:41:16.768Z,5.30
2018-07-31T09:43:46.049Z,5.17
2018-07-31T09:46:16.452Z,5.07
2018-07-31T09:48:46.469Z,5.80
2018-07-31T09:51:15.766Z,5.00
2018-07-31T09:53:45.093Z,5.70
2018-07-31T09:56:14.510Z,5.20
2018-07-31T09:58:43.848Z,5.47
2018-07-31T10:01:19.486Z,5.10
2018-07-31T10:03:49.600Z,4.77
2018-07-31T10:06:18.996Z,5.20
2018-07-31T10:08:48.480Z,5.03
2018-07-31T10:11:17.815Z,5.30
2018-07-31T10:13:47.120Z,5.27
2018-07-31T10:16:16.449Z,5.13
2018-07-31T10:18:46.288Z,5.40
2018-07-31T10:21:15.622Z,4.77
2018-07-31T10:23:45.045Z,5.17
2018-07-31T10:26:14.312Z,4.97
2018-07-31T10:28:43.618Z,5.20
2018-07-31T10:31:12.990Z,4.90
2018-07-31T10:33:42.295Z,4.70
2018-07-31T10:36:11.643Z,4.80
2018-07-31T10:38:40.973Z,4.90
2018-07-31T10:41:10.316Z,4.50
2018-07-31T10:43:39.804Z,4.90
2018-07-31T10:46:09.130Z,4.87
2018-07-31T10:48:38.436Z,4.90
2018-07-31T10:51:07.840Z,5.30
2018-07-31T10:53:37.185Z,5.00
2018-07-31T10:56:06.523Z,4.87
2018-07-31T10:58:35.942Z,4.80
2018-07-31T11:01:05.289Z,4.80
2018-07-31T11:03:34.616Z,5.10
2018-07-31T11:06:03.925Z,5.37
2018-07-31T11:08:34.057Z,4.93
2018-07-31T11:11:03.449Z,4.70
2018-07-31T11:13:32.716Z,4.77
2018-07-31T11:16:01.980Z,4.90
2018-07-31T11:18:31.340Z,4.50
2018-07-31T11:21:00.715Z,4.60
2018-07-31T11:23:30.272Z,4.93
2018-07-31T11:26:00.382Z,5.13
2018-07-31T11:28:29.796Z,5.03
2018-07-31T11:30:59.135Z,4.63
2018-07-31T11:33:28.505Z,4.90
2018-07-31T11:35:57.800Z,5.10
2018-07-31T11:38:27.112Z,4.70
2018-07-31T11:40:56.504Z,5.07
2018-07-31T11:43:25.800Z,4.57
2018-07-31T11:45:55.087Z,5.17
2018-07-31T11:48:24.378Z,4.70
2018-07-31T11:50:53.880Z,4.80
2018-07-31T11:53:23.190Z,4.97
2018-07-31T11:55:52.896Z,4.87
2018-07-31T11:58:22.194Z,4.67
2018-07-31T12:00:51.555Z,4.77
2018-07-31T12:03:20.830Z,4.90
2018-07-31T12:05:50.140Z,4.37
2018-07-31T12:08:20.227Z,4.90
2018-07-31T12:10:49.557Z,4.77
2018-07-31T12:13:18.884Z,4.90
2018-07-31T12:15:48.221Z,4.73
2018-07-31T12:18:17.560Z,4.60
2018-07-31T12:20:46.999Z,4.60
2018-07-31T12:23:16.345Z,4.40
2018-07-31T12:25:45.655Z,5.20
2018-07-31T12:28:16.773Z,4.70
2018-07-31T12:30:46.120Z,4.83
2018-07-31T12:33:15.595Z,4.53
2018-07-31T12:35:44.888Z,4.40
2018-07-31T12:38:14.273Z,4.60
2018-07-31T12:40:43.589Z,4.33
2018-07-31T12:43:12.860Z,4.80
2018-07-31T12:45:42.300Z,4.73
2018-07-31T12:48:11.639Z,4.73
2018-07-31T12:50:41.188Z,4.33
2018-07-31T12:53:10.517Z,4.67
2018-07-31T12:55:39.796Z,4.80
2018-07-31T12:58:09.956Z,4.90
2018-07-31T13:00:39.476Z,4.57
2018-07-31T13:03:08.750Z,4.70
2018-07-31T13:05:38.040Z,4.60
2018-07-31T13:08:07.344Z,4.67
2018-07-31T13:10:36.762Z,4.70
2018-07-31T13:13:06.134Z,4.60
2018-07-31T13:15:35.468Z,4.30
2018-07-31T13:18:04.836Z,4.77
2018-07-31T13:20:34.250Z,4.80
2018-07-31T13:23:03.527Z,4.70
2018-07-31T13:25:32.928Z,4.73
2018-07-31T13:28:02.260Z,4.50
2018-07-31T13:30:32.709Z,4.80
2018-07-31T13:33:01.999Z,4.60
2018-07-31T13:35:31.262Z,4.30
2018-07-31T13:38:00.621Z,4.70
2018-07-31T13:40:30.005Z,4.60
2018-07-31T13:42:59.378Z,4.47
2018-07-31T13:45:28.708Z,4.37
2018-07-31T13:47:57.999Z,4.87
2018-07-31T13:50:27.307Z,4.30
2018-07-31T13:52:56.607Z,4.57
2018-07-31T13:55:25.973Z,4.60
2018-07-31T13:57:55.213Z,4.90
2018-07-31T14:00:24.835Z,4.63
2018-07-31T14:02:56.280Z,4.63
2018-07-31T14:05:25.912Z,4.60
2018-07-31T14:07:55.248Z,4.77
2018-07-31T14:10:24.612Z,4.63
2018-07-31T14:12:53.940Z,4.90
2018-07-31T14:15:23.259Z,4.43
2018-07-31T14:17:52.545Z,4.37
2018-07-31T14:20:21.776Z,5.17
2018-07-31T14:22:51.110Z,4.47
2018-07-31T14:25:20.360Z,4.83
2018-07-31T14:27:49.636Z,4.93
2018-07-31T14:30:18.978Z,4.67
2018-07-31T14:32:48.336Z,4.80
2018-07-31T14:35:17.699Z,4.57
2018-07-31T14:37:47.348Z,4.67
2018-07-31T14:40:16.725Z,4.40
2018-07-31T14:42:46.080Z,4.53
2018-07-31T14:45:15.349Z,4.87
2018-07-31T14:47:44.623Z,4.67
2018-07-31T14:50:13.988Z,4.40
2018-07-31T14:52:43.267Z,4.80
2018-07-31T14:55:12.518Z,5.17
2018-07-31T14:57:41.765Z,4.70
2018-07-31T15:00:11.281Z,4.80
2018-07-31T15:02:40.627Z,4.50
2018-07-31T15:05:09.918Z,4.67
2018-07-31T15:07:39.367Z,4.80
2018-07-31T15:10:09.464Z,4.73
2018-07-31T15:12:38.996Z,5.17
2018-07-31T15:15:08.569Z,5.00
2018-07-31T15:17:37.916Z,4.73
2018-07-31T15:20:07.235Z,4.90
2018-07-31T15:22:36.531Z,4.23
2018-07-31T15:25:06.280Z,4.67
2018-07-31T15:27:35.658Z,4.70
2018-07-31T15:30:05.418Z,4.63
2018-07-31T15:32:34.659Z,4.40
2018-07-31T15:35:04.939Z,4.53
2018-07-31T15:37:34.341Z,4.53
2018-07-31T15:40:03.728Z,4.47
2018-07-31T15:42:33.766Z,4.00
2018-07-31T15:45:03.064Z,4.20
2018-07-31T15:47:32.378Z,4.50
2018-07-31T15:50:01.769Z,4.70
2018-07-31T15:52:31.018Z,4.10
2018-07-31T15:55:00.316Z,4.30
2018-07-31T15:57:29.552Z,4.63
2018-07-31T15:59:58.928Z,4.50
2018-07-31T16:02:29.127Z,4.40
2018-07-31T16:04:58.408Z,4.43
2018-07-31T16:07:27.697Z,4.47
2018-07-31T16:09:57.013Z,4.60
2018-07-31T16:12:26.324Z,4.10
2018-07-31T16:14:56.020Z,4.60
2018-07-31T16:17:24.788Z,4.57
2018-07-31T16:19:54.161Z,4.30
2018-07-31T16:22:23.333Z,4.70
2018-07-31T16:24:52.109Z,4.50
2018-07-31T16:27:20.902Z,4.60
2018-07-31T16:29:50.188Z,4.97
2018-07-31T16:32:19.481Z,4.80
2018-07-31T16:34:48.877Z,4.30
2018-07-31T16:37:18.213Z,4.60
2018-07-31T16:39:47.707Z,4.50
2018-07-31T16:42:16.984Z,4.40
2018-07-31T16:44:46.232Z,4.67
2018-07-31T16:47:15.589Z,4.57
2018-07-31T16:49:44.887Z,4.60
2018-07-31T16:52:14.180Z,4.17
2018-07-31T16:54:43.462Z,4.73
2018-07-31T16:57:12.752Z,4.80
2018-07-31T16:59:42.086Z,4.47
2018-07-31T17:02:11.389Z,5.20
2018-07-31T17:04:40.659Z,4.40
2018-07-31T17:07:10.001Z,4.50
2018-07-31T17:09:39.342Z,4.27
2018-07-31T17:12:08.936Z,4.57
2018-07-31T17:14:38.273Z,4.70
2018-07-31T17:17:07.776Z,4.73
2018-07-31T17:19:37.132Z,4.53
2018-07-31T17:22:06.431Z,4.40
2018-07-31T17:24:35.179Z,4.70
2018-07-31T17:27:04.504Z,4.67
2018-07-31T17:29:33.784Z,5.20
2018-07-31T17:32:03.084Z,5.47
2018-07-31T17:34:32.434Z,6.00
2018-07-31T17:37:01.208Z,5.23
2018-07-31T17:39:30.542Z,4.70
2018-07-31T17:41:59.847Z,5.10
2018-07-31T17:44:29.288Z,4.97
2018-07-31T17:46:58.536Z,4.93
2018-07-31T17:49:27.816Z,4.93
2018-07-31T17:51:57.595Z,5.10
2018-07-31T17:54:26.883Z,5.07
2018-07-31T17:56:56.172Z,4.60
2018-07-31T17:59:25.536Z,4.70
2018-07-31T18:01:54.835Z,4.60
2018-07-31T18:04:24.152Z,5.20
2018-07-31T18:06:53.420Z,4.80
2018-07-31T18:09:23.432Z,5.03
2018-07-31T18:11:52.867Z,4.57
2018-07-31T18:14:22.289Z,4.90
2018-07-31T18:16:51.540Z,5.10
2018-07-31T18:19:20.845Z,4.40
2018-07-31T18:21:50.178Z,4.30
2018-07-31T18:24:19.308Z,4.93
2018-07-31T18:26:48.562Z,4.50
2018-07-31T18:29:17.985Z,4.30
2018-07-31T18:31:47.314Z,4.53
2018-07-31T18:34:16.646Z,4.30
2018-07-31T18:36:46.021Z,4.43
2018-07-31T18:39:15.352Z,4.27
2018-07-31T18:41:44.597Z,4.80
2018-07-31T18:44:13.923Z,4.53
2018-07-31T18:46:43.203Z,4.10
2018-07-31T18:49:12.554Z,4.33
2018-07-31T18:51:41.848Z,4.30
2018-07-31T18:54:11.112Z,4.43
2018-07-31T18:56:40.647Z,4.23
2018-07-31T18:59:09.970Z,4.10
2018-07-31T19:01:39.317Z,4.57
2018-07-31T19:04:08.604Z,4.40
2018-07-31T19:06:37.990Z,4.47
2018-07-31T19:09:11.148Z,4.43
2018-07-31T19:11:42.184Z,4.47
2018-07-31T19:14:11.645Z,4.37
2018-07-31T19:16:40.965Z,4.40
2018-07-31T19:19:10.348Z,4.37
2018-07-31T19:21:39.686Z,4.47
2018-07-31T19:24:08.984Z,4.20
2018-07-31T19:26:38.276Z,4.17
2018-07-31T19:29:08.000Z,4.17
2018-07-31T19:31:37.374Z,4.27
2018-07-31T19:34:06.674Z,4.00
2018-07-31T19:36:35.982Z,4.00
2018-07-31T19:39:06.648Z,4.40
2018-07-31T19:41:36.076Z,4.00
2018-07-31T19:44:05.566Z,4.53
2018-07-31T19:46:34.891Z,4.40
2018-07-31T19:49:04.257Z,3.93
2018-07-31T19:51:33.553Z,4.47
2018-07-31T19:54:02.852Z,4.13
2018-07-31T19:56:32.109Z,3.90
2018-07-31T19:59:01.484Z,4.00
2018-07-31T20:01:31.050Z,4.60
2018-07-31T20:04:00.369Z,3.87
2018-07-31T20:06:29.206Z,4.30
2018-07-31T20:08:58.565Z,4.17
2018-07-31T20:11:27.858Z,4.33
2018-07-31T20:13:57.584Z,4.13
2018-07-31T20:16:26.958Z,4.17
2018-07-31T20:18:56.339Z,4.30
2018-07-31T20:21:25.663Z,4.20
2018-07-31T20:23:54.427Z,3.87
2018-07-31T20:26:23.665Z,4.33
2018-07-31T20:28:53.076Z,4.23
2018-07-31T20:31:22.452Z,4.20
2018-07-31T20:33:52.388Z,4.23
2018-07-31T20:36:21.789Z,4.30
2018-07-31T20:38:50.787Z,3.93
2018-07-31T20:41:20.316Z,4.20
2018-07-31T20:43:49.725Z,4.70
2018-07-31T20:46:19.140Z,5.17
2018-07-31T20:48:48.362Z,5.73
2018-07-31T20:51:17.603Z,5.77
2018-07-31T20:53:46.780Z,5.10
2018-07-31T20:56:15.988Z,5.20
2018-07-31T20:58:45.189Z,5.30
2018-07-31T21:01:14.965Z,5.17
2018-07-31T21:03:44.271Z,5.30
2018-07-31T21:06:13.680Z,5.57
2018-07-31T21:08:42.936Z,5.17
2018-07-31T21:11:12.139Z,5.43
2018-07-31T21:13:41.334Z,5.30
2018-07-31T21:16:10.588Z,5.40
2018-07-31T21:18:39.835Z,5.20
2018-07-31T21:21:09.056Z,5.40
2018-07-31T21:23:38.281Z,5.13
2018-07-31T21:26:07.657Z,4.70
2018-07-31T21:28:36.856Z,4.73
2018-07-31T21:31:06.057Z,5.40
2018-07-31T21:33:35.255Z,5.70
2018-07-31T21:36:04.475Z,5.40
2018-07-31T21:38:33.692Z,5.17
2018-07-31T21:41:02.984Z,5.77
2018-07-31T21:43:32.180Z,5.50
2018-07-31T21:46:01.385Z,5.20
2018-07-31T21:48:30.580Z,5.53
2018-07-31T21:50:59.885Z,4.90
2018-07-31T21:53:29.258Z,6.20
2018-07-31T21:55:58.416Z,5.67
2018-07-31T21:58:27.612Z,5.67
2018-07-31T22:01:01.901Z,5.50
2018-07-31T22:03:31.360Z,5.23
2018-07-31T22:06:00.586Z,5.47
2018-07-31T22:08:29.780Z,5.10
2018-07-31T22:10:59.460Z,5.40
2018-07-31T22:13:28.664Z,5.47
2018-07-31T22:15:57.896Z,5.33
2018-07-31T22:18:28.737Z,4.83
2018-07-31T22:20:58.068Z,5.10
2018-07-31T22:23:27.237Z,5.13
2018-07-31T22:25:56.439Z,5.13
2018-07-31T22:28:25.628Z,5.30
2018-07-31T22:30:54.831Z,5.73
2018-07-31T22:33:24.034Z,5.20
2018-07-31T22:35:53.408Z,5.27
2018-07-31T22:38:23.411Z,5.77
2018-07-31T22:40:56.055Z,5.20
2018-07-31T22:43:25.667Z,5.37
2018-07-31T22:45:54.887Z,5.27
2018-07-31T22:48:24.087Z,5.90
2018-07-31T22:50:53.809Z,5.33
2018-07-31T22:53:23.028Z,5.30
2018-07-31T22:55:52.273Z,5.50
2018-07-31T22:58:21.471Z,5.53
2018-07-31T23:00:50.771Z,5.30
2018-07-31T23:03:19.987Z,5.40
2018-07-31T23:05:49.191Z,5.10
2018-07-31T23:08:18.392Z,5.33
2018-07-31T23:10:47.692Z,4.93
2018-07-31T23:13:16.891Z,5.10
2018-07-31T23:15:46.468Z,5.20
2018-07-31T23:18:15.698Z,5.20
2018-07-31T23:20:44.970Z,5.07
2018-07-31T23:23:14.263Z,5.60
2018-07-31T23:25:44.351Z,4.97
2018-07-31T23:28:13.584Z,5.43
2018-07-31T23:30:43.805Z,5.20
2018-07-31T23:33:13.006Z,5.50
2018-07-31T23:35:42.223Z,5.17
2018-07-31T23:38:11.421Z,5.50
2018-07-31T23:40:40.657Z,5.07
2018-07-31T23:43:09.896Z,5.43
2018-07-31T23:45:39.101Z,5.33
2018-07-31T23:48:08.460Z,5.40
2018-07-31T23:50:37.729Z,6.00
2018-07-31T23:53:06.928Z,5.27
2018-07-31T23:55:36.570Z,5.13
2018-07-31T23:58:05.764Z,5.67
